createdAt,value
2023-05-21T00:00:37.969Z,18.40
2023-05-21T00:01:37.953Z,20.10
2023-05-21T00:02:38.088Z,19.30
2023-05-21T00:03:38.050Z,21.30
2023-05-21T00:04:38.070Z,20.00
2023-05-21T00:05:39.245Z,20.60
2023-05-21T00:06:37.945Z,19.50
2023-05-21T00:07:37.908Z,20.50
2023-05-21T00:08:37.899Z,20.00
2023-05-21T00:09:37.924Z,19.40
2023-05-21T00:10:37.867Z,20.10
2023-05-21T00:11:37.870Z,18.90
2023-05-21T00:12:37.880Z,19.80
2023-05-21T00:13:37.834Z,20.20
2023-05-21T00:14:37.852Z,19.90
2023-05-21T00:15:38.029Z,19.40
2023-05-21T00:16:37.850Z,19.30
2023-05-21T00:17:37.817Z,20.60
2023-05-21T00:18:37.791Z,20.70
2023-05-21T00:19:37.797Z,19.70
2023-05-21T00:20:37.796Z,19.20
2023-05-21T00:21:37.801Z,20.10
2023-05-21T00:22:37.775Z,20.40
2023-05-21T00:23:37.792Z,21.20
2023-05-21T00:24:37.782Z,19.80
2023-05-21T00:25:37.826Z,21.00
2023-05-21T00:26:37.732Z,20.60
2023-05-21T00:27:37.734Z,19.70
2023-05-21T00:28:37.706Z,20.90
2023-05-21T00:29:37.709Z,20.10
2023-05-21T00:30:37.682Z,20.60
2023-05-21T00:31:37.727Z,21.90
2023-05-21T00:32:37.718Z,19.60
2023-05-21T00:33:37.647Z,19.70
2023-05-21T00:34:37.650Z,21.90
2023-05-21T00:35:37.784Z,19.70
2023-05-21T00:36:37.654Z,19.40
2023-05-21T00:37:37.619Z,22.00
2023-05-21T00:38:37.588Z,20.50
2023-05-21T00:39:37.618Z,22.50
2023-05-21T00:40:37.626Z,21.70
2023-05-21T00:41:37.562Z,20.40
2023-05-21T00:42:37.548Z,20.70
2023-05-21T00:43:37.570Z,20.40
2023-05-21T00:44:37.541Z,20.00
2023-05-21T00:45:38.071Z,22.90
2023-05-21T00:46:37.515Z,21.30
2023-05-21T00:47:37.564Z,21.50
2023-05-21T00:48:37.526Z,22.70
2023-05-21T00:49:37.467Z,21.10
2023-05-21T00:50:37.468Z,22.00
2023-05-21T00:51:37.457Z,20.70
2023-05-21T00:52:37.459Z,22.10
2023-05-21T00:53:37.445Z,21.50
2023-05-21T00:54:37.469Z,23.00
2023-05-21T00:55:37.749Z,19.70
2023-05-21T00:56:37.552Z,21.80
2023-05-21T00:57:37.412Z,23.40
2023-05-21T00:58:37.450Z,21.90
2023-05-21T00:59:38.387Z,22.10
2023-05-21T01:00:37.432Z,21.30
2023-05-21T01:01:37.504Z,20.90
2023-05-21T01:02:37.692Z,22.20
2023-05-21T01:03:37.405Z,21.20
2023-05-21T01:04:37.347Z,22.70
2023-05-21T01:05:37.485Z,22.10
2023-05-21T01:06:37.335Z,21.60
2023-05-21T01:07:37.289Z,22.90
2023-05-21T01:08:37.281Z,21.60
2023-05-21T01:09:37.357Z,21.00
2023-05-21T01:10:37.283Z,21.30
2023-05-21T01:11:37.266Z,22.20
2023-05-21T01:12:37.253Z,21.70
2023-05-21T01:13:37.236Z,21.50
2023-05-21T01:14:37.267Z,22.20
2023-05-21T01:15:37.404Z,21.80
2023-05-21T01:16:37.267Z,21.80
2023-05-21T01:17:37.229Z,22.40
2023-05-21T01:18:37.267Z,21.20
2023-05-21T01:19:37.213Z,21.40
2023-05-21T01:20:37.190Z,21.40
2023-05-21T01:21:37.218Z,22.70
2023-05-21T01:22:37.140Z,22.90
2023-05-21T01:23:37.162Z,21.40
2023-05-21T01:24:37.166Z,22.40
2023-05-21T01:25:37.328Z,21.60
2023-05-21T01:26:37.118Z,21.30
2023-05-21T01:27:37.204Z,22.90
2023-05-21T01:28:37.112Z,21.30
2023-05-21T01:29:37.105Z,22.30
2023-05-21T01:30:37.086Z,22.30
2023-05-21T01:31:37.087Z,22.50
2023-05-21T01:32:37.083Z,21.00
2023-05-21T01:33:37.104Z,23.50
2023-05-21T01:34:37.072Z,21.80
2023-05-21T01:35:37.251Z,22.40
2023-05-21T01:36:37.023Z,23.90
2023-05-21T01:37:37.025Z,20.90
2023-05-21T01:38:36.986Z,22.90
2023-05-21T01:39:37.003Z,22.60
2023-05-21T01:40:36.996Z,23.00
2023-05-21T01:41:36.959Z,25.00
2023-05-21T01:42:36.982Z,21.70
2023-05-21T01:43:36.964Z,21.60
2023-05-21T01:44:36.962Z,22.00
2023-05-21T01:45:37.074Z,22.40
2023-05-21T01:46:36.938Z,22.40
2023-05-21T01:47:36.928Z,23.70
2023-05-21T01:48:36.907Z,22.30
2023-05-21T01:49:36.876Z,22.80
2023-05-21T01:50:36.877Z,22.10
2023-05-21T01:51:36.894Z,23.00
2023-05-21T01:52:36.851Z,22.20
2023-05-21T01:53:36.882Z,22.30
2023-05-21T01:54:36.834Z,24.00
2023-05-21T01:55:37.108Z,22.90
2023-05-21T01:56:36.824Z,22.70
2023-05-21T01:57:36.800Z,22.50
2023-05-21T01:58:36.779Z,23.10
2023-05-21T01:59:36.792Z,25.00
2023-05-21T02:00:36.799Z,24.60
2023-05-21T02:01:36.796Z,23.80
2023-05-21T02:02:36.796Z,24.70
2023-05-21T02:03:36.921Z,23.90
2023-05-21T02:04:36.733Z,25.80
2023-05-21T02:05:36.987Z,24.00
2023-05-21T02:06:36.706Z,23.20
2023-05-21T02:07:36.700Z,24.50
2023-05-21T02:08:36.700Z,25.50
2023-05-21T02:09:36.673Z,23.60
2023-05-21T02:10:36.728Z,22.80
2023-05-21T02:11:36.646Z,24.10
2023-05-21T02:12:36.668Z,23.20
2023-05-21T02:13:36.625Z,23.80
2023-05-21T02:14:36.638Z,24.20
2023-05-21T02:15:36.889Z,24.80
2023-05-21T02:16:36.716Z,24.10
2023-05-21T02:17:36.626Z,24.70
2023-05-21T02:18:36.625Z,23.70
2023-05-21T02:19:36.683Z,25.70
2023-05-21T02:20:36.611Z,24.00
2023-05-21T02:21:36.555Z,24.60
2023-05-21T02:22:36.556Z,26.40
2023-05-21T02:23:36.580Z,25.20
2023-05-21T02:24:36.527Z,24.70
2023-05-21T02:25:36.906Z,23.00
2023-05-21T02:26:36.567Z,26.30
2023-05-21T02:27:36.550Z,24.00
2023-05-21T02:28:36.565Z,24.10
2023-05-21T02:29:36.512Z,24.40
2023-05-21T02:30:36.502Z,25.20
2023-05-21T02:31:36.454Z,24.40
2023-05-21T02:32:36.520Z,25.00
2023-05-21T02:33:36.525Z,25.10
2023-05-21T02:34:36.451Z,25.60
2023-05-21T02:35:36.755Z,25.00
2023-05-21T02:36:36.440Z,24.40
2023-05-21T02:37:36.452Z,25.70
2023-05-21T02:38:36.395Z,25.60
2023-05-21T02:39:36.376Z,26.00
2023-05-21T02:40:36.406Z,23.60
2023-05-21T02:41:36.374Z,24.40
2023-05-21T02:42:36.362Z,25.10
2023-05-21T02:43:36.354Z,24.70
2023-05-21T02:44:36.324Z,25.00
2023-05-21T02:45:36.609Z,25.80
2023-05-21T02:46:36.341Z,24.90
2023-05-21T02:47:36.316Z,24.90
2023-05-21T02:48:36.378Z,25.70
2023-05-21T02:49:36.292Z,25.60
2023-05-21T02:50:36.265Z,26.60
2023-05-21T02:51:36.304Z,25.60
2023-05-21T02:52:36.259Z,25.40
2023-05-21T02:53:36.259Z,26.10
2023-05-21T02:54:36.238Z,25.20
2023-05-21T02:55:36.447Z,27.20
2023-05-21T02:56:36.238Z,29.80
2023-05-21T02:57:36.228Z,25.10
2023-05-21T02:58:36.203Z,26.00
2023-05-21T02:59:36.188Z,25.90
2023-05-21T03:00:36.199Z,25.00
2023-05-21T03:01:36.269Z,28.60
2023-05-21T03:02:36.240Z,25.20
2023-05-21T03:03:36.186Z,25.20
2023-05-21T03:04:36.182Z,27.00
2023-05-21T03:05:36.272Z,26.50
2023-05-21T03:06:36.119Z,27.60
2023-05-21T03:07:37.109Z,25.90
2023-05-21T03:08:36.127Z,27.90
2023-05-21T03:09:36.100Z,26.30
2023-05-21T03:10:36.158Z,26.60
2023-05-21T03:11:36.110Z,27.90
2023-05-21T03:12:36.049Z,30.10
2023-05-21T03:13:36.086Z,27.80
2023-05-21T03:14:36.023Z,27.60
2023-05-21T03:15:36.126Z,28.10
2023-05-21T03:16:36.069Z,29.20
2023-05-21T03:17:36.081Z,26.80
2023-05-21T03:18:35.992Z,28.10
2023-05-21T03:19:36.080Z,26.70
2023-05-21T03:20:35.966Z,26.60
2023-05-21T03:21:35.960Z,27.50
2023-05-21T03:22:35.959Z,27.00
2023-05-21T03:23:35.967Z,26.30
2023-05-21T03:24:35.937Z,27.10
2023-05-21T03:25:36.276Z,26.20
2023-05-21T03:26:35.950Z,26.70
2023-05-21T03:27:35.894Z,26.60
2023-05-21T03:28:35.904Z,29.10
2023-05-21T03:29:35.944Z,27.60
2023-05-21T03:30:35.915Z,27.80
2023-05-21T03:31:35.933Z,27.70
2023-05-21T03:32:35.894Z,28.70
2023-05-21T03:33:35.844Z,31.00
2023-05-21T03:34:35.872Z,27.50
2023-05-21T03:35:36.065Z,29.10
2023-05-21T03:36:35.822Z,28.10
2023-05-21T03:37:35.847Z,28.60
2023-05-21T03:38:37.077Z,28.80
2023-05-21T03:39:36.809Z,27.60
2023-05-21T03:40:35.794Z,26.10
2023-05-21T03:41:35.829Z,27.60
2023-05-21T03:42:35.764Z,28.00
2023-05-21T03:43:35.748Z,28.30
2023-05-21T03:44:35.758Z,28.00
2023-05-21T03:45:35.993Z,27.80
2023-05-21T03:46:35.782Z,28.70
2023-05-21T03:47:35.760Z,26.80
2023-05-21T03:48:35.716Z,28.20
2023-05-21T03:49:35.709Z,27.70
2023-05-21T03:50:35.685Z,28.80
2023-05-21T03:51:35.695Z,27.20
2023-05-21T03:52:35.709Z,26.50
2023-05-21T03:53:35.652Z,29.00
2023-05-21T03:54:35.644Z,28.70
2023-05-21T03:55:35.797Z,27.70
2023-05-21T03:56:36.628Z,28.50
2023-05-21T03:57:35.596Z,27.60
2023-05-21T03:58:35.596Z,28.90
2023-05-21T03:59:35.611Z,28.30
2023-05-21T04:00:35.620Z,27.80
2023-05-21T04:01:35.576Z,29.90
2023-05-21T04:02:35.626Z,28.10
2023-05-21T04:03:36.728Z,29.00
2023-05-21T04:04:35.608Z,27.70
2023-05-21T04:05:35.782Z,27.70
2023-05-21T04:06:35.547Z,28.20
2023-05-21T04:07:35.554Z,30.10
2023-05-21T04:08:35.537Z,27.80
2023-05-21T04:09:36.676Z,27.70
2023-05-21T04:10:36.536Z,27.10
2023-05-21T04:11:35.474Z,27.80
2023-05-21T04:12:35.454Z,30.20
2023-05-21T04:13:35.462Z,28.30
2023-05-21T04:14:35.457Z,27.20
2023-05-21T04:15:35.678Z,28.80
2023-05-21T04:16:35.537Z,28.90
2023-05-21T04:17:35.482Z,27.70
2023-05-21T04:18:35.403Z,28.40
2023-05-21T04:19:35.582Z,28.70
2023-05-21T04:20:35.380Z,26.40
2023-05-21T04:21:35.375Z,28.40
2023-05-21T04:22:35.471Z,28.50
2023-05-21T04:23:35.359Z,28.40
2023-05-21T04:24:35.402Z,27.80
2023-05-21T04:25:35.576Z,28.10
2023-05-21T04:26:35.354Z,28.40
2023-05-21T04:27:35.378Z,27.20
2023-05-21T04:28:35.310Z,27.70
2023-05-21T04:29:35.336Z,27.60
2023-05-21T04:30:35.332Z,27.60
2023-05-21T04:31:35.344Z,27.40
2023-05-21T04:32:35.313Z,27.50
2023-05-21T04:33:35.269Z,28.00
2023-05-21T04:34:35.295Z,28.00
2023-05-21T04:35:35.478Z,28.30
2023-05-21T04:36:35.241Z,27.80
2023-05-21T04:37:35.384Z,27.80
2023-05-21T04:38:35.206Z,27.00
2023-05-21T04:39:35.224Z,26.90
2023-05-21T04:40:36.940Z,27.30
2023-05-21T04:41:35.172Z,27.60
2023-05-21T04:42:35.187Z,27.70
2023-05-21T04:43:35.159Z,26.80
2023-05-21T04:44:35.179Z,27.10
2023-05-21T04:45:35.414Z,27.30
2023-05-21T04:46:35.229Z,27.90
2023-05-21T04:47:35.142Z,27.40
2023-05-21T04:48:35.230Z,28.30
2023-05-21T04:49:35.121Z,27.10
2023-05-21T04:50:35.118Z,26.40
2023-05-21T04:51:35.118Z,26.20
2023-05-21T04:52:35.093Z,26.50
2023-05-21T04:53:35.069Z,28.10
2023-05-21T04:54:35.081Z,27.40
2023-05-21T04:56:06.947Z,27.20
2023-05-21T04:56:35.030Z,27.70
2023-05-21T04:57:35.003Z,27.50
2023-05-21T04:58:35.004Z,28.10
2023-05-21T04:59:35.005Z,26.80
2023-05-21T05:00:35.024Z,27.50
2023-05-21T05:01:34.975Z,27.20
2023-05-21T05:02:35.969Z,26.90
2023-05-21T05:03:35.015Z,26.90
2023-05-21T05:04:34.962Z,26.90
2023-05-21T05:05:35.288Z,26.70
2023-05-21T05:06:34.935Z,27.00
2023-05-21T05:07:34.911Z,27.30
2023-05-21T05:08:34.897Z,26.40
2023-05-21T05:09:34.948Z,26.80
2023-05-21T05:10:34.881Z,25.90
2023-05-21T05:11:34.912Z,26.90
2023-05-21T05:12:34.860Z,26.30
2023-05-21T05:13:34.945Z,28.40
2023-05-21T05:14:34.834Z,27.00
2023-05-21T05:16:06.766Z,27.00
2023-05-21T05:16:34.861Z,27.60
2023-05-21T05:17:34.826Z,26.30
2023-05-21T05:18:34.783Z,25.80
2023-05-21T05:19:34.929Z,26.70
2023-05-21T05:20:34.826Z,27.50
2023-05-21T05:21:34.784Z,26.20
2023-05-21T05:22:34.753Z,26.10
2023-05-21T05:23:34.736Z,25.10
2023-05-21T05:24:34.750Z,26.40
2023-05-21T05:25:34.791Z,26.40
2023-05-21T05:26:34.741Z,27.40
2023-05-21T05:27:36.997Z,26.10
2023-05-21T05:28:34.695Z,27.00
2023-05-21T05:29:34.685Z,25.60
2023-05-21T05:30:34.698Z,26.90
2023-05-21T05:31:34.751Z,26.30
2023-05-21T05:32:34.668Z,26.50
2023-05-21T05:33:34.624Z,27.10
2023-05-21T05:34:34.625Z,26.40
2023-05-21T05:35:34.800Z,25.50
2023-05-21T05:36:34.619Z,26.20
2023-05-21T05:37:34.624Z,25.40
2023-05-21T05:38:34.585Z,26.10
2023-05-21T05:39:34.567Z,25.60
2023-05-21T05:40:34.560Z,26.10
2023-05-21T05:41:34.552Z,26.30
2023-05-21T05:42:34.591Z,25.40
2023-05-21T05:43:34.544Z,25.00
2023-05-21T05:44:34.546Z,24.90
2023-05-21T05:45:34.677Z,27.50
2023-05-21T05:46:34.511Z,25.90
2023-05-21T05:47:34.516Z,26.70
2023-05-21T05:48:34.494Z,24.30
2023-05-21T05:49:34.476Z,25.10
2023-05-21T05:50:34.468Z,26.10
2023-05-21T05:51:34.574Z,26.00
2023-05-21T05:52:34.451Z,25.40
2023-05-21T05:53:34.464Z,25.60
2023-05-21T05:54:34.441Z,24.30
2023-05-21T05:55:34.622Z,25.20
2023-05-21T05:56:34.416Z,25.80
2023-05-21T05:57:34.442Z,26.90
2023-05-21T05:58:34.408Z,25.10
2023-05-21T05:59:34.394Z,26.30
2023-05-21T06:00:34.380Z,24.60
2023-05-21T06:01:34.397Z,25.70
2023-05-21T06:02:34.421Z,25.10
2023-05-21T06:03:34.518Z,25.60
2023-05-21T06:04:34.327Z,25.70
2023-05-21T06:05:34.459Z,25.70
2023-05-21T06:06:34.379Z,26.00
2023-05-21T06:07:34.287Z,25.50
2023-05-21T06:08:37.360Z,26.30
2023-05-21T06:09:34.259Z,24.50
2023-05-21T06:10:34.276Z,23.00
2023-05-21T06:11:34.283Z,25.30
2023-05-21T06:12:35.244Z,24.50
2023-05-21T06:13:34.240Z,24.30
2023-05-21T06:14:34.227Z,24.40
2023-05-21T06:15:34.272Z,23.00
2023-05-21T06:16:34.363Z,23.30
2023-05-21T06:17:34.207Z,23.00
2023-05-21T06:18:34.174Z,24.60
2023-05-21T06:19:34.302Z,22.60
2023-05-21T06:20:34.169Z,23.90
2023-05-21T06:21:34.146Z,25.50
2023-05-21T06:22:34.144Z,24.20
2023-05-21T06:23:34.115Z,23.80
2023-05-21T06:24:34.194Z,23.50
2023-05-21T06:25:34.210Z,23.90
2023-05-21T06:26:34.109Z,24.80
2023-05-21T06:27:34.094Z,23.50
2023-05-21T06:28:34.118Z,24.40
2023-05-21T06:29:34.102Z,24.30
2023-05-21T06:30:34.051Z,23.30
2023-05-21T06:31:34.046Z,24.50
2023-05-21T06:32:34.210Z,24.70
2023-05-21T06:33:34.178Z,22.40
2023-05-21T06:34:34.033Z,24.80
2023-05-21T06:35:34.137Z,23.50
2023-05-21T06:36:34.004Z,23.40
2023-05-21T06:37:33.994Z,21.90
2023-05-21T06:38:34.015Z,23.50
2023-05-21T06:39:34.018Z,23.60
2023-05-21T06:40:33.965Z,24.20
2023-05-21T06:41:33.961Z,25.20
2023-05-21T06:42:33.945Z,24.70
2023-05-21T06:43:34.010Z,23.40
2023-05-21T06:44:33.914Z,24.90
2023-05-21T06:45:33.938Z,24.50
2023-05-21T06:46:34.082Z,24.30
2023-05-21T06:47:33.925Z,24.00
2023-05-21T06:48:33.882Z,24.60
2023-05-21T06:49:33.859Z,23.80
2023-05-21T06:50:33.849Z,24.50
2023-05-21T06:51:33.856Z,24.60
2023-05-21T06:52:33.841Z,23.50
2023-05-21T06:53:33.844Z,24.00
2023-05-21T06:54:33.795Z,24.90
2023-05-21T06:55:33.888Z,23.70
2023-05-21T06:56:33.785Z,23.80
2023-05-21T06:57:33.789Z,26.30
2023-05-21T06:58:33.789Z,23.50
2023-05-21T06:59:33.761Z,24.00
2023-05-21T07:00:33.759Z,22.90
2023-05-21T07:01:33.775Z,23.30
2023-05-21T07:02:33.801Z,23.70
2023-05-21T07:03:33.764Z,23.00
2023-05-21T07:04:33.707Z,23.90
2023-05-21T07:05:33.697Z,22.40
2023-05-21T07:06:33.688Z,23.00
2023-05-21T07:07:33.714Z,23.00
2023-05-21T07:08:33.663Z,23.10
2023-05-21T07:09:33.657Z,21.70
2023-05-21T07:10:33.651Z,23.60
2023-05-21T07:11:33.641Z,22.80
2023-05-21T07:12:33.642Z,21.60
2023-05-21T07:13:33.628Z,22.90
2023-05-21T07:14:33.593Z,22.60
2023-05-21T07:15:33.661Z,22.70
2023-05-21T07:16:33.653Z,21.50
2023-05-21T07:17:33.614Z,21.80
2023-05-21T07:18:33.575Z,22.20
2023-05-21T07:19:33.624Z,21.30
2023-05-21T07:20:33.558Z,22.10
2023-05-21T07:21:33.533Z,21.10
2023-05-21T07:22:33.521Z,21.60
2023-05-21T07:23:33.524Z,21.90
2023-05-21T07:24:33.508Z,21.70
2023-05-21T07:25:33.493Z,21.50
2023-05-21T07:26:33.478Z,22.10
2023-05-21T07:27:33.472Z,21.60
2023-05-21T07:28:33.464Z,34.60
2023-05-21T07:29:33.492Z,21.40
2023-05-21T07:30:33.454Z,21.20
2023-05-21T07:31:33.476Z,22.30
2023-05-21T07:32:33.495Z,22.30
2023-05-21T07:33:33.393Z,20.50
2023-05-21T07:34:33.409Z,21.00
2023-05-21T07:35:33.400Z,21.40
2023-05-21T07:36:33.405Z,21.50
2023-05-21T07:37:33.399Z,21.40
2023-05-21T07:38:34.367Z,24.10
2023-05-21T07:39:33.386Z,21.70
2023-05-21T07:40:33.359Z,22.80
2023-05-21T07:41:33.437Z,23.20
2023-05-21T07:42:33.314Z,23.40
2023-05-21T07:43:33.337Z,23.30
2023-05-21T07:44:33.333Z,23.20
2023-05-21T07:45:33.300Z,23.60
2023-05-21T07:46:33.299Z,23.90
2023-05-21T07:47:33.314Z,23.60
2023-05-21T07:48:35.430Z,20.00
2023-05-21T07:49:34.261Z,19.70
2023-05-21T07:50:33.275Z,19.50
2023-05-21T07:51:33.236Z,19.90
2023-05-21T07:52:33.260Z,20.10
2023-05-21T07:53:33.220Z,18.90
2023-05-21T07:54:33.310Z,19.10
2023-05-21T07:55:33.196Z,19.70
2023-05-21T07:56:33.191Z,19.00
2023-05-21T07:57:33.217Z,19.80
2023-05-21T07:58:33.160Z,19.50
2023-05-21T07:59:33.162Z,19.80
2023-05-21T08:00:33.157Z,19.40
2023-05-21T08:01:33.166Z,18.50
2023-05-21T08:02:33.229Z,18.40
2023-05-21T08:03:33.306Z,19.40
2023-05-21T08:04:33.156Z,18.70
2023-05-21T08:05:33.123Z,17.30
2023-05-21T08:06:33.088Z,17.70
2023-05-21T08:07:33.089Z,17.20
2023-05-21T08:08:33.064Z,18.20
2023-05-21T08:09:33.083Z,16.40
2023-05-21T08:10:33.042Z,18.10
2023-05-21T08:11:33.090Z,18.00
2023-05-21T08:12:33.040Z,17.30
2023-05-21T08:13:33.026Z,16.00
2023-05-21T08:14:33.042Z,17.40
2023-05-21T08:15:32.996Z,15.90
2023-05-21T08:16:33.023Z,15.80
2023-05-21T08:17:33.013Z,16.00
2023-05-21T08:18:32.998Z,16.80
2023-05-21T08:19:33.052Z,19.20
2023-05-21T08:20:32.972Z,19.30
2023-05-21T08:21:32.942Z,19.30
2023-05-21T08:22:32.936Z,19.30
2023-05-21T08:23:32.938Z,20.10
2023-05-21T08:24:32.935Z,18.70
2023-05-21T08:25:32.893Z,18.40
2023-05-21T08:26:32.877Z,20.10
2023-05-21T08:27:32.889Z,18.70
2023-05-21T08:28:32.876Z,18.70
2023-05-21T08:29:32.857Z,18.90
2023-05-21T08:30:32.842Z,18.20
2023-05-21T08:31:32.875Z,18.50
2023-05-21T08:32:32.841Z,18.60
2023-05-21T08:33:32.820Z,18.80
2023-05-21T08:34:32.820Z,23.50
2023-05-21T08:35:32.792Z,18.90
2023-05-21T08:36:32.878Z,17.90
2023-05-21T08:37:32.782Z,33.30
2023-05-21T08:38:32.777Z,17.60
2023-05-21T08:39:32.765Z,17.70
2023-05-21T08:40:32.762Z,17.60
2023-05-21T08:41:32.731Z,17.70
2023-05-21T08:43:33.745Z,19.10
2023-05-21T08:44:32.732Z,18.10
2023-05-21T08:45:32.713Z,17.60
2023-05-21T08:46:32.712Z,17.60
2023-05-21T08:47:32.678Z,17.50
2023-05-21T08:48:32.675Z,18.50
2023-05-21T08:49:32.680Z,17.80
2023-05-21T08:50:32.648Z,18.90
2023-05-21T08:51:32.644Z,17.70
2023-05-21T08:52:32.627Z,17.50
2023-05-21T08:53:32.617Z,18.30
2023-05-21T08:54:32.657Z,17.80
2023-05-21T08:55:32.600Z,17.80
2023-05-21T08:56:32.599Z,17.80
2023-05-21T08:57:32.617Z,18.00
2023-05-21T08:58:32.569Z,17.40
2023-05-21T08:59:32.556Z,17.20
2023-05-21T09:00:32.561Z,16.70
2023-05-21T09:01:32.562Z,17.10
2023-05-21T09:02:32.548Z,17.00
2023-05-21T09:03:32.634Z,16.50
2023-05-21T09:04:32.563Z,17.50
2023-05-21T09:05:32.506Z,17.80
2023-05-21T09:06:32.541Z,17.70
2023-05-21T09:07:32.505Z,17.50
2023-05-21T09:08:32.494Z,17.30
2023-05-21T09:09:32.471Z,17.20
2023-05-21T09:10:32.465Z,17.40
2023-05-21T09:11:32.433Z,17.30
2023-05-21T09:12:32.446Z,16.90
2023-05-21T09:13:32.448Z,17.50
2023-05-21T09:14:32.414Z,16.50
2023-05-21T09:15:32.410Z,19.00
2023-05-21T09:16:32.422Z,15.60
2023-05-21T09:17:32.392Z,15.90
2023-05-21T09:18:32.382Z,16.80
2023-05-21T09:19:32.671Z,17.30
2023-05-21T09:20:32.355Z,16.90
2023-05-21T09:21:32.396Z,16.00
2023-05-21T09:22:32.323Z,16.00
2023-05-21T09:23:32.327Z,16.70
2023-05-21T09:24:33.718Z,16.10
2023-05-21T09:25:32.395Z,16.90
2023-05-21T09:26:32.374Z,17.40
2023-05-21T09:27:32.284Z,16.10
2023-05-21T09:28:32.286Z,15.20
2023-05-21T09:29:32.252Z,15.00
2023-05-21T09:30:34.809Z,15.80
2023-05-21T09:31:32.380Z,15.60
2023-05-21T09:32:32.309Z,16.10
2023-05-21T09:33:32.281Z,14.70
2023-05-21T09:34:32.209Z,14.60
2023-05-21T09:35:32.187Z,15.40
2023-05-21T09:36:32.244Z,15.20
2023-05-21T09:37:32.203Z,15.40
2023-05-21T09:38:32.191Z,15.30
2023-05-21T09:39:33.174Z,15.00
2023-05-21T09:40:32.189Z,14.40
2023-05-21T09:41:32.155Z,14.80
2023-05-21T09:42:32.125Z,14.70
2023-05-21T09:43:32.157Z,14.60
2023-05-21T09:44:32.110Z,13.20
2023-05-21T09:45:32.103Z,13.50
2023-05-21T09:46:32.144Z,13.70
2023-05-21T09:47:32.157Z,13.00
2023-05-21T09:48:32.099Z,12.80
2023-05-21T09:49:32.056Z,13.00
2023-05-21T09:50:32.050Z,13.10
2023-05-21T09:51:33.315Z,13.40
2023-05-21T09:52:32.040Z,13.10
2023-05-21T09:53:32.025Z,13.90
2023-05-21T09:54:32.024Z,13.80
2023-05-21T09:55:32.095Z,13.60
2023-05-21T09:56:32.016Z,15.80
2023-05-21T09:57:32.004Z,15.10
2023-05-21T09:58:31.957Z,15.70
2023-05-21T09:59:32.007Z,15.80
2023-05-21T10:00:32.021Z,15.60
2023-05-21T10:01:32.033Z,15.20
2023-05-21T10:02:32.971Z,13.50
2023-05-21T10:03:31.940Z,14.10
2023-05-21T10:04:31.948Z,15.00
2023-05-21T10:05:31.933Z,15.70
2023-05-21T10:06:31.955Z,15.30
2023-05-21T10:07:31.911Z,14.60
2023-05-21T10:08:31.868Z,15.90
2023-05-21T10:09:31.864Z,15.20
2023-05-21T10:10:32.030Z,14.60
2023-05-21T10:11:31.858Z,14.50
2023-05-21T10:12:31.853Z,14.20
2023-05-21T10:13:31.834Z,14.10
2023-05-21T10:14:31.862Z,14.30
2023-05-21T10:15:31.821Z,15.20
2023-05-21T10:16:31.882Z,15.90
2023-05-21T10:17:31.857Z,14.90
2023-05-21T10:18:31.771Z,15.20
2023-05-21T10:19:31.836Z,14.70
2023-05-21T10:20:31.759Z,14.60
2023-05-21T10:21:31.749Z,15.60
2023-05-21T10:22:31.780Z,13.90
2023-05-21T10:23:32.753Z,13.40
2023-05-21T10:24:31.729Z,14.20
2023-05-21T10:25:31.803Z,14.10
2023-05-21T10:26:31.725Z,14.10
2023-05-21T10:27:32.798Z,14.10
2023-05-21T10:28:31.692Z,14.30
2023-05-21T10:29:31.715Z,13.50
2023-05-21T10:30:31.675Z,13.60
2023-05-21T10:31:31.647Z,13.50
2023-05-21T10:32:31.876Z,13.80
2023-05-21T10:33:31.691Z,14.30
2023-05-21T10:34:31.627Z,13.40
2023-05-21T10:35:31.609Z,13.60
2023-05-21T10:36:31.599Z,13.90
2023-05-21T10:37:31.601Z,14.20
2023-05-21T10:38:31.596Z,14.60
2023-05-21T10:39:31.601Z,14.40
2023-05-21T10:40:31.559Z,13.60
2023-05-21T10:41:31.552Z,13.50
2023-05-21T10:42:31.557Z,14.40
2023-05-21T10:43:31.560Z,13.90
2023-05-21T10:44:31.544Z,14.90
2023-05-21T10:45:31.559Z,14.90
2023-05-21T10:46:31.509Z,13.70
2023-05-21T10:47:31.517Z,14.20
2023-05-21T10:48:31.517Z,14.10
2023-05-21T10:49:31.506Z,13.50
2023-05-21T10:50:31.527Z,12.90
2023-05-21T10:51:31.464Z,13.70
2023-05-21T10:52:31.450Z,12.80
2023-05-21T10:53:31.446Z,13.20
2023-05-21T10:54:31.435Z,14.70
2023-05-21T10:55:31.411Z,13.40
2023-05-21T10:57:03.427Z,12.50
2023-05-21T10:57:31.434Z,12.60
2023-05-21T10:58:31.384Z,13.30
2023-05-21T10:59:31.410Z,13.50
2023-05-21T11:00:31.366Z,13.60
2023-05-21T11:01:31.447Z,13.20
2023-05-21T11:02:31.497Z,14.00
2023-05-21T11:03:32.512Z,14.90
2023-05-21T11:04:31.334Z,14.50
2023-05-21T11:05:31.396Z,15.00
2023-05-21T11:06:31.312Z,13.70
2023-05-21T11:07:31.387Z,14.10
2023-05-21T11:08:31.312Z,13.80
2023-05-21T11:09:31.298Z,14.30
2023-05-21T11:10:31.279Z,14.20
2023-05-21T11:11:31.263Z,14.10
2023-05-21T11:12:31.277Z,12.90
2023-05-21T11:13:31.305Z,14.10
2023-05-21T11:14:31.232Z,13.40
2023-05-21T11:15:31.236Z,13.90
2023-05-21T11:16:31.264Z,13.20
2023-05-21T11:17:31.243Z,13.80
2023-05-21T11:18:31.210Z,13.50
2023-05-21T11:19:33.286Z,12.70
2023-05-21T11:20:32.183Z,13.50
2023-05-21T11:21:31.242Z,12.70
2023-05-21T11:22:31.155Z,13.50
2023-05-21T11:23:31.150Z,13.90
2023-05-21T11:24:31.158Z,12.30
2023-05-21T11:25:31.129Z,12.80
2023-05-21T11:26:31.112Z,12.80
2023-05-21T11:27:31.138Z,12.40
2023-05-21T11:28:31.104Z,12.80
2023-05-21T11:29:31.170Z,12.70
2023-05-21T11:30:31.104Z,13.40
2023-05-21T11:31:31.098Z,13.60
2023-05-21T11:32:31.087Z,12.70
2023-05-21T11:33:32.053Z,13.00
2023-05-21T11:34:31.071Z,13.50
2023-05-21T11:35:31.086Z,13.60
2023-05-21T11:36:31.023Z,12.80
2023-05-21T11:37:31.048Z,14.60
2023-05-21T11:38:31.115Z,13.80
2023-05-21T11:39:31.026Z,13.00
2023-05-21T11:40:31.030Z,13.30
2023-05-21T11:41:30.970Z,13.60
2023-05-21T11:42:31.465Z,14.50
2023-05-21T11:43:30.956Z,14.70
2023-05-21T11:44:30.951Z,14.70
2023-05-21T11:45:30.955Z,14.50
2023-05-21T11:46:30.941Z,14.20
2023-05-21T11:47:30.919Z,14.20
2023-05-21T11:48:32.406Z,14.20
2023-05-21T11:49:30.896Z,14.40
2023-05-21T11:50:30.911Z,14.00
2023-05-21T11:51:30.868Z,14.40
2023-05-21T11:52:30.872Z,14.20
2023-05-21T11:53:30.877Z,13.30
2023-05-21T11:54:30.834Z,13.50
2023-05-21T11:55:30.832Z,13.30
2023-05-21T11:56:30.817Z,13.70
2023-05-21T11:57:30.921Z,13.90
2023-05-21T11:58:30.803Z,13.40
2023-05-21T11:59:30.851Z,13.30
2023-05-21T12:00:30.795Z,14.00
2023-05-21T12:01:30.761Z,14.60
2023-05-21T12:02:30.803Z,13.60
2023-05-21T12:03:30.853Z,13.60
2023-05-21T12:04:30.740Z,13.80
2023-05-21T12:05:30.740Z,14.30
2023-05-21T12:06:30.872Z,13.70
2023-05-21T12:07:30.745Z,14.40
2023-05-21T12:08:30.718Z,13.80
2023-05-21T12:09:30.695Z,14.70
2023-05-21T12:10:30.701Z,14.00
2023-05-21T12:11:30.707Z,14.70
2023-05-21T12:12:41.775Z,14.10
2023-05-21T12:13:32.674Z,14.30
2023-05-21T12:14:30.729Z,14.70
2023-05-21T12:15:30.627Z,13.50
2023-05-21T12:16:30.644Z,13.80
2023-05-21T12:17:30.645Z,14.40
2023-05-21T12:18:30.624Z,14.40
2023-05-21T12:19:30.749Z,13.70
2023-05-21T12:20:30.599Z,14.20
2023-05-21T12:21:30.567Z,14.80
2023-05-21T12:22:30.570Z,13.60
2023-05-21T12:23:30.582Z,15.10
2023-05-21T12:24:30.546Z,14.30
2023-05-21T12:25:30.557Z,14.70
2023-05-21T12:26:30.534Z,13.90
2023-05-21T12:27:30.534Z,14.80
2023-05-21T12:28:30.504Z,13.90
2023-05-21T12:29:30.489Z,14.20
2023-05-21T12:30:30.508Z,13.40
2023-05-21T12:31:30.548Z,14.80
2023-05-21T12:32:30.495Z,14.10
2023-05-21T12:33:30.456Z,14.00
2023-05-21T12:34:30.457Z,14.70
2023-05-21T12:35:30.540Z,15.40
2023-05-21T12:36:30.468Z,14.70
2023-05-21T12:37:30.412Z,15.50
2023-05-21T12:38:30.422Z,14.50
2023-05-21T12:39:30.437Z,15.10
2023-05-21T12:40:30.395Z,15.10
2023-05-21T12:41:30.371Z,14.20
2023-05-21T12:42:30.396Z,14.30
2023-05-21T12:43:30.387Z,14.10
2023-05-21T12:44:30.349Z,15.60
2023-05-21T12:45:30.339Z,15.30
2023-05-21T12:46:30.389Z,16.00
2023-05-21T12:47:30.406Z,15.30
2023-05-21T12:48:30.311Z,14.90
2023-05-21T12:49:30.303Z,16.20
2023-05-21T12:50:30.291Z,16.40
2023-05-21T12:51:30.293Z,16.40
2023-05-21T12:52:30.270Z,17.90
2023-05-21T12:53:30.299Z,16.70